This is the latest recevied weather packets stored in our database for station/object YO8PIC-5. If no packets are shown the sender has not sent any weather packets the latest 10 day(s).
| Time | Temp. | Humidity | Pressure | Rain* | Wind** | Luminosity | Snow |
|---|---|---|---|---|---|---|---|
| 1777628518 | 13.89° C | 20% | 1024.8 hPa | - | - | - | - |
| 1777627618 | 10.56° C | 26% | 1024.7 hPa | - | - | - | - |
| 1777626718 | 11.67° C | 23% | 1025.1 hPa | - | - | - | - |
| 1777625817 | 9.44° C | 25% | 1024.9 hPa | - | - | - | - |
| 1777624917 | 9.44° C | 25% | 1025.2 hPa | - | - | - | - |
| 1777624017 | 15.56° C | 18% | 1025.1 hPa | - | - | - | - |
| 1777623116 | 8.89° C | 25% | 1025.1 hPa | - | - | - | - |
| 1777622216 | 10° C | 25% | 1025.3 hPa | - | - | - | - |
| 1777621316 | 10° C | 29% | 1025.3 hPa | - | - | - | - |
| 1777620416 | 9.44° C | 33% | 1025.2 hPa | - | - | - | - |
| 1777619516 | 8.33° C | 33% | 1025.2 hPa | - | - | - | - |
| 1777618615 | 8.33° C | 39% | 1025.3 hPa | - | - | - | - |
| 1777617714 | 6.67° C | 38% | 1025.2 hPa | - | - | - | - |
| 1777616819 | 5.56° C | 38% | 1025.2 hPa | - | - | - | - |
| 1777615918 | 5.56° C | 44% | 1025.2 hPa | - | - | - | - |
| 1777615018 | 4.44° C | 52% | 1025.1 hPa | - | - | - | - |
| 1777614118 | 3.89° C | 54% | 1025.2 hPa | - | - | - | - |
| 1777613218 | 3.33° C | 59% | 1025.1 hPa | - | - | - | - |
| 1777612317 | 2.78° C | 61% | 1024.9 hPa | - | - | - | - |
| 1777611417 | 2.22° C | 60% | 1024.8 hPa | - | - | - | - |
| 1777610517 | 2.22° C | 67% | 1024.9 hPa | - | - | - | - |
| 1777609617 | 1.11° C | 68% | 1024.9 hPa | - | - | - | - |
| 1777608717 | 0.56° C | 73% | 1024.9 hPa | - | - | - | - |
| 1777607817 | 0° C | 75% | 1024.9 hPa | - | - | - | - |
| 1777606916 | -0.56° C | 80% | 1025 hPa | - | - | - | - |
* Rain since midnight (hover to see other rain measurements)
** Current wind speed in m/s (hover to see current wind gust speed)